createdAt,value
2022-10-15T00:03:08.411Z,15.23
2022-10-15T00:08:11.693Z,15.22
2022-10-15T00:13:13.440Z,15.19
2022-10-15T00:18:15.138Z,15.22
2022-10-15T00:23:16.809Z,15.19
2022-10-15T00:28:18.538Z,15.15
2022-10-15T00:33:22.557Z,15.17
2022-10-15T00:38:24.369Z,15.16
2022-10-15T00:43:47.705Z,15.17
2022-10-15T00:48:54.591Z,15.16
2022-10-15T00:53:56.714Z,15.16
2022-10-15T00:59:00.225Z,15.15
2022-10-15T01:04:04.577Z,15.13
2022-10-15T01:09:06.645Z,15.13
2022-10-15T01:14:16.407Z,15.12
2022-10-15T01:19:46.102Z,15.07
2022-10-15T01:25:10.870Z,15.09
2022-10-15T01:30:16.586Z,15.03
2022-10-15T01:35:21.129Z,15.03
2022-10-15T01:40:34.211Z,15.04
2022-10-15T01:45:41.788Z,15.03
2022-10-15T01:50:59.750Z,15.07
2022-10-15T01:56:09.754Z,15.05
2022-10-15T02:01:12.368Z,15.07
2022-10-15T02:06:23.906Z,15.08
2022-10-15T02:11:27.368Z,15.10
2022-10-15T02:16:43.978Z,15.18
2022-10-15T02:21:56.215Z,15.18
2022-10-15T02:27:01.035Z,15.21
2022-10-15T02:32:06.130Z,15.20
2022-10-15T02:37:08.889Z,15.22
2022-10-15T02:42:11.053Z,15.26
2022-10-15T02:47:13.027Z,15.28
2022-10-15T02:52:15.671Z,15.27
2022-10-15T02:57:17.588Z,15.28
2022-10-15T03:02:20.766Z,15.30
2022-10-15T03:07:23.323Z,15.32
2022-10-15T03:12:26.010Z,15.32
2022-10-15T03:17:28.331Z,15.33
2022-10-15T03:22:30.138Z,15.35
2022-10-15T03:27:33.391Z,15.36
2022-10-15T03:32:36.322Z,15.34
2022-10-15T03:37:40.320Z,15.34
2022-10-15T03:42:44.460Z,15.37
2022-10-15T03:47:46.933Z,15.38
2022-10-15T03:52:48.734Z,15.39
2022-10-15T03:57:50.558Z,15.41
2022-10-15T04:02:53.240Z,15.44
2022-10-15T04:08:00.502Z,15.43
2022-10-15T04:13:05.201Z,15.46
2022-10-15T04:18:08.865Z,15.49
2022-10-15T04:23:11.948Z,15.52
2022-10-15T04:28:17.386Z,15.55
2022-10-15T04:33:20.933Z,15.58
2022-10-15T04:38:28.565Z,15.59
2022-10-15T04:43:36.633Z,15.62
2022-10-15T04:48:43.316Z,15.64
2022-10-15T04:53:48.148Z,15.67
2022-10-15T04:58:51.007Z,15.69
2022-10-15T05:03:53.012Z,15.71
2022-10-15T05:08:54.833Z,15.73
2022-10-15T05:14:03.762Z,15.73
2022-10-15T05:19:08.334Z,15.74
2022-10-15T05:24:12.659Z,15.73
2022-10-15T05:29:29.216Z,15.76
2022-10-15T05:34:31.384Z,15.78
2022-10-15T05:39:37.240Z,15.79
2022-10-15T05:44:39.125Z,15.80
2022-10-15T05:49:40.888Z,15.82
2022-10-15T05:54:48.690Z,15.84
2022-10-15T05:59:50.615Z,15.80
2022-10-15T06:04:53.381Z,15.83
2022-10-15T06:09:54.987Z,15.84
2022-10-15T06:14:58.990Z,15.85
2022-10-15T06:20:00.678Z,15.89
2022-10-15T06:25:02.362Z,15.91
2022-10-15T06:30:04.783Z,15.95
2022-10-15T06:35:07.091Z,16.00
2022-10-15T06:40:11.300Z,16.02
2022-10-15T06:45:19.478Z,16.06
2022-10-15T06:50:23.457Z,16.09
2022-10-15T06:55:25.289Z,16.10
2022-10-15T07:00:27.892Z,16.13
2022-10-15T07:05:29.555Z,16.20
2022-10-15T07:10:31.250Z,16.22
2022-10-15T07:15:33.913Z,16.24
2022-10-15T07:20:35.594Z,16.30
2022-10-15T07:25:37.428Z,16.32
2022-10-15T07:30:39.186Z,16.38
2022-10-15T07:35:40.950Z,16.41
2022-10-15T07:40:42.615Z,16.46
2022-10-15T07:45:48.061Z,16.53
2022-10-15T07:51:01.860Z,16.54
2022-10-15T07:56:07.826Z,16.54
2022-10-15T08:01:11.058Z,16.61
2022-10-15T08:06:12.929Z,16.64
2022-10-15T08:11:16.451Z,16.72
2022-10-15T08:16:20.178Z,16.70
2022-10-15T08:21:32.414Z,16.78
2022-10-15T08:26:34.893Z,16.86
2022-10-15T08:31:36.706Z,16.90
2022-10-15T08:36:38.389Z,16.96
2022-10-15T08:41:40.315Z,17.01
2022-10-15T08:46:48.989Z,17.11
2022-10-15T08:51:55.190Z,17.21
2022-10-15T08:57:15.373Z,17.21
2022-10-15T09:02:25.632Z,17.18
2022-10-15T09:07:37.411Z,17.21
2022-10-15T09:13:00.598Z,17.24
2022-10-15T09:18:02.455Z,17.28
2022-10-15T09:23:17.172Z,17.31
2022-10-15T09:28:25.434Z,17.39
2022-10-15T09:33:45.223Z,17.54
2022-10-15T09:39:09.865Z,17.65
2022-10-15T09:44:15.239Z,17.73
2022-10-15T09:49:26.344Z,17.85
2022-10-15T09:54:38.264Z,17.96
2022-10-15T09:59:52.922Z,18.15
2022-10-15T10:04:55.298Z,18.19
2022-10-15T10:10:01.954Z,18.26
2022-10-15T10:15:22.620Z,18.35
2022-10-15T10:20:32.291Z,18.52
2022-10-15T10:25:42.487Z,18.47
2022-10-15T10:30:56.119Z,18.35
2022-10-15T10:35:59.674Z,18.37
2022-10-15T10:41:08.565Z,18.38
2022-10-15T10:46:22.701Z,18.34
2022-10-15T10:51:27.680Z,18.29
2022-10-15T10:56:42.576Z,18.22
2022-10-15T11:01:45.140Z,18.12
2022-10-15T11:07:00.707Z,18.10
2022-10-15T11:12:08.299Z,18.10
2022-10-15T11:17:36.471Z,18.10
2022-10-15T11:23:02.091Z,18.12
2022-10-15T11:28:15.624Z,18.02
2022-10-15T11:33:35.150Z,18.00
2022-10-15T11:38:53.590Z,18.04
2022-10-15T11:44:28.784Z,18.06
2022-10-15T11:49:56.882Z,17.95
2022-10-15T11:55:13.867Z,17.79
2022-10-15T12:00:31.288Z,17.68
2022-10-15T12:05:41.902Z,17.67
2022-10-15T12:10:55.126Z,17.70
2022-10-15T12:16:15.397Z,17.96
2022-10-15T12:21:42.834Z,18.53
2022-10-15T12:26:44.571Z,19.04
2022-10-15T12:31:56.396Z,19.59
2022-10-15T12:37:06.505Z,19.83
2022-10-15T12:42:23.606Z,19.87
2022-10-15T12:47:51.423Z,20.21
2022-10-15T12:53:22.923Z,20.05
2022-10-15T12:58:38.705Z,20.13
2022-10-15T13:03:50.062Z,20.11
2022-10-15T13:08:56.967Z,19.91
2022-10-15T13:14:15.256Z,19.73
2022-10-15T13:19:23.786Z,19.67
2022-10-15T13:24:30.567Z,19.61
2022-10-15T13:29:32.321Z,19.61
2022-10-15T13:34:36.564Z,19.56
2022-10-15T13:39:41.754Z,19.63
2022-10-15T13:44:56.698Z,19.66
2022-10-15T13:50:21.896Z,19.62
2022-10-15T13:55:29.760Z,19.98
2022-10-15T14:00:34.798Z,19.93
2022-10-15T14:05:36.809Z,19.80
2022-10-15T14:10:38.474Z,20.06
2022-10-15T14:15:46.413Z,20.49
2022-10-15T14:20:49.264Z,20.82
2022-10-15T14:25:56.766Z,21.15
2022-10-15T14:30:58.993Z,21.14
2022-10-15T14:36:23.198Z,21.18
2022-10-15T14:41:30.489Z,21.04
2022-10-15T14:46:51.134Z,21.11
2022-10-15T14:52:11.770Z,20.95
2022-10-15T14:57:24.539Z,21.05
2022-10-15T15:02:28.722Z,21.02
2022-10-15T15:07:30.601Z,21.05
2022-10-15T15:12:33.615Z,21.09
2022-10-15T15:17:35.602Z,21.12
2022-10-15T15:22:38.238Z,20.82
2022-10-15T15:27:40.015Z,20.58
2022-10-15T15:32:41.885Z,20.35
2022-10-15T15:37:43.617Z,20.24
2022-10-15T15:42:46.062Z,20.16
2022-10-15T15:47:48.088Z,20.05
2022-10-15T15:52:49.931Z,19.95
2022-10-15T15:57:51.608Z,19.86
2022-10-15T16:02:55.565Z,19.69
2022-10-15T16:07:59.753Z,19.60
2022-10-15T16:13:02.667Z,19.53
2022-10-15T16:18:04.801Z,19.40
2022-10-15T16:23:06.748Z,19.21
2022-10-15T16:28:08.802Z,19.11
2022-10-15T16:33:10.595Z,19.03
2022-10-15T16:38:12.219Z,18.99
2022-10-15T16:43:14.153Z,18.97
2022-10-15T16:48:15.837Z,18.95
2022-10-15T16:53:17.508Z,18.88
2022-10-15T16:58:19.242Z,18.80
2022-10-15T17:03:20.930Z,18.69
2022-10-15T17:08:23.913Z,18.65
2022-10-15T17:13:27.208Z,18.59
2022-10-15T17:18:28.948Z,18.55
2022-10-15T17:23:31.371Z,18.50
2022-10-15T17:28:33.538Z,18.44
2022-10-15T17:33:36.795Z,18.38
2022-10-15T17:38:38.792Z,18.34
2022-10-15T17:43:40.954Z,18.29
2022-10-15T17:48:43.511Z,18.26
2022-10-15T17:53:46.082Z,18.25
2022-10-15T17:58:48.612Z,18.22
2022-10-15T18:03:53.134Z,18.20
2022-10-15T18:08:55.779Z,18.16
2022-10-15T18:13:57.667Z,18.06
2022-10-15T18:18:59.474Z,18.02
2022-10-15T18:24:01.284Z,18.00
2022-10-15T18:29:02.897Z,17.94
2022-10-15T18:34:04.703Z,17.82
2022-10-15T18:39:06.399Z,17.82
2022-10-15T18:44:14.776Z,17.66
2022-10-15T18:49:19.179Z,17.58
2022-10-15T18:54:21.951Z,17.61
2022-10-15T18:59:23.611Z,17.69
2022-10-15T19:04:28.515Z,17.77
2022-10-15T19:09:31.449Z,17.83
2022-10-15T19:14:33.162Z,17.85
2022-10-15T19:19:35.364Z,17.89
2022-10-15T19:24:37.162Z,17.87
2022-10-15T19:29:39.574Z,17.85
2022-10-15T19:34:41.584Z,17.77
2022-10-15T19:39:48.082Z,17.78
2022-10-15T19:44:49.753Z,17.78
2022-10-15T19:49:52.220Z,17.80
2022-10-15T19:54:53.907Z,17.78
2022-10-15T19:59:55.580Z,17.79
2022-10-15T20:04:57.217Z,17.79
2022-10-15T20:09:58.866Z,17.73
2022-10-15T20:15:00.780Z,17.69
2022-10-15T20:20:02.418Z,17.66
2022-10-15T20:25:04.433Z,17.61
2022-10-15T20:30:06.661Z,17.59
2022-10-15T20:35:08.960Z,17.60
2022-10-15T20:40:10.790Z,17.62
2022-10-15T20:45:14.582Z,17.65
2022-10-15T20:50:22.535Z,17.65
2022-10-15T20:55:25.463Z,17.64
2022-10-15T21:00:27.216Z,17.58
2022-10-15T21:05:28.826Z,17.57
2022-10-15T21:10:30.481Z,17.56
2022-10-15T21:15:32.441Z,17.55
2022-10-15T21:20:34.157Z,17.54
2022-10-15T21:25:35.838Z,17.57
2022-10-15T21:30:40.770Z,17.56
2022-10-15T21:35:42.449Z,17.51
2022-10-15T21:40:45.095Z,17.47
2022-10-15T21:45:46.887Z,17.38
2022-10-15T21:50:49.082Z,17.31
2022-10-15T21:55:55.428Z,17.32
2022-10-15T22:00:57.310Z,17.28
2022-10-15T22:05:59.210Z,17.18
2022-10-15T22:11:20.491Z,17.14
2022-10-15T22:16:23.663Z,17.01
2022-10-15T22:21:30.995Z,16.86
2022-10-15T22:26:36.108Z,16.72
2022-10-15T22:31:37.820Z,16.75
2022-10-15T22:36:39.591Z,16.75
2022-10-15T22:41:44.010Z,16.83
2022-10-15T22:46:46.278Z,16.99
2022-10-15T22:51:49.569Z,17.11
2022-10-15T22:56:51.627Z,17.11
2022-10-15T23:01:53.281Z,16.98
2022-10-15T23:06:54.972Z,16.98
2022-10-15T23:11:56.602Z,16.96
2022-10-15T23:16:58.271Z,17.01
2022-10-15T23:22:02.574Z,17.09
2022-10-15T23:27:04.310Z,17.07
2022-10-15T23:32:06.177Z,16.48
2022-10-15T23:37:07.854Z,16.17
2022-10-15T23:42:09.547Z,15.94
2022-10-15T23:47:11.391Z,15.82
2022-10-15T23:52:13.064Z,15.79
2022-10-15T23:57:14.792Z,15.82
